Time;durP1;ratioP1;P1;durP2;ratioP2;P2;SDS_P1;SDS_P2;PMS_P1;PMS_P2;Temp;Humidity;BMP_temperature;BMP_pressure;BME280_temperature;BME280_humidity;BME280_pressure;Samples;Min_cycle;Max_cycle;Signal;HPM_P1;HPM_P2
2023/09/24 00:01:35;;;;;;;;;;;;;;;8.72;100.00;102123.94;5370234;27;20030;-78
2023/09/24 00:04:06;;;;;;;17.00;7.40;;;;;;;8.83;100.00;102139.72;5369775;27;20314;-78
2023/09/24 00:06:38;;;;;;;16.83;7.93;;;;;;;8.79;100.00;102131.84;5369935;27;20065;-78
2023/09/24 00:09:09;;;;;;;11.50;7.00;;;;;;;8.81;100.00;102132.78;5369683;27;20482;-80
2023/09/24 00:11:41;;;;;;;13.03;7.83;;;;;;;8.76;100.00;102135.28;5369822;27;20430;-79
2023/09/24 00:14:12;;;;;;;13.10;8.27;;;;;;;8.76;100.00;102138.75;5369789;27;20053;-79
2023/09/24 00:16:44;;;;;;;11.60;8.00;;;;;;;8.73;100.00;102140.44;5370458;27;20030;-82
2023/09/24 00:19:16;;;;;;;11.53;7.27;;;;;;;8.71;100.00;102137.81;5351854;27;20508;-80
2023/09/24 00:21:47;;;;;;;;;;;;;;;8.59;100.00;102140.19;5352637;27;20058;-80
2023/09/24 00:24:19;;;;;;;11.32;7.90;;;;;;;8.65;100.00;102149.84;5369740;27;20327;-79
2023/09/24 00:26:50;;;;;;;16.90;8.90;;;;;;;8.66;100.00;102142.06;5369708;27;20050;-80
2023/09/24 00:29:21;;;;;;;20.13;9.40;;;;;;;8.59;100.00;102150.59;5351081;27;20034;-80
2023/09/24 00:31:53;;;;;;;13.90;8.00;;;;;;;8.55;100.00;102144.47;5370543;27;20027;-81
2023/09/24 00:34:24;;;;;;;12.63;7.90;;;;;;;8.54;100.00;102149.66;5370790;27;20065;-79
2023/09/24 00:36:57;;;;;;;12.30;8.83;;;;;;;8.52;100.00;102152.22;5370416;27;20035;-81
2023/09/24 00:39:29;;;;;;;12.45;8.80;;;;;;;8.52;100.00;102151.34;5369992;27;20070;-79
2023/09/24 00:42:00;;;;;;;17.77;10.53;;;;;;;8.54;100.00;102152.25;5369617;27;20065;-80
2023/09/24 00:44:31;;;;;;;13.17;9.43;;;;;;;8.49;100.00;102159.09;5369964;27;20411;-78
2023/09/24 00:47:03;;;;;;;15.50;9.53;;;;;;;8.55;100.00;102160.06;5370024;27;20046;-81
2023/09/24 00:49:35;;;;;;;17.37;9.80;;;;;;;8.56;100.00;102160.94;5351479;27;20093;-80
2023/09/24 00:52:07;;;;;;;14.67;10.20;;;;;;;8.52;100.00;102169.53;5369556;27;20623;-80
2023/09/24 00:54:39;;;;;;;14.55;10.90;;;;;;;8.58;100.00;102165.31;5350914;27;20046;-79
2023/09/24 00:57:11;;;;;;;18.77;10.82;;;;;;;8.48;100.00;102168.59;5369645;27;20526;-80
2023/09/24 00:59:46;;;;;;;16.27;11.30;;;;;;;8.49;100.00;102170.34;5369983;27;20035;-80
2023/09/24 01:02:17;;;;;;;12.50;10.23;;;;;;;8.43;100.00;102165.03;5370437;27;20045;-80
2023/09/24 01:04:49;;;;;;;24.40;12.00;;;;;;;8.40;100.00;102163.25;5370091;27;20022;-80
2023/09/24 01:07:23;;;;;;;21.90;11.07;;;;;;;8.44;100.00;102155.53;5369211;27;20112;-79
2023/09/24 01:09:55;;;;;;;18.88;11.82;;;;;;;8.39;100.00;102156.28;5372146;27;20423;-79
2023/09/24 01:12:26;;;;;;;15.13;10.83;;;;;;;8.37;100.00;102158.00;5355346;27;20045;-79
2023/09/24 01:14:58;;;;;;;16.77;11.17;;;;;;;8.34;100.00;102157.03;5373409;27;20027;-78
2023/09/24 01:17:29;;;;;;;17.87;11.27;;;;;;;8.33;100.00;102160.50;5373904;27;20342;-78
2023/09/24 01:20:01;;;;;;;17.10;11.93;;;;;;;8.28;100.00;102163.00;5373650;27;20462;-78
2023/09/24 01:22:32;;;;;;;18.13;10.63;;;;;;;8.22;100.00;102163.75;5374031;27;20054;-78
2023/09/24 01:25:04;;;;;;;17.27;11.20;;;;;;;8.16;100.00;102158.47;5355271;27;20090;-79
2023/09/24 01:27:36;;;;;;;13.60;11.20;;;;;;;8.17;100.00;102160.19;5374395;27;20042;-78
2023/09/24 01:30:08;;;;;;;15.50;11.32;;;;;;;8.14;100.00;102162.72;5374225;27;20113;-79
2023/09/24 01:32:40;;;;;;;14.63;12.33;;;;;;;8.10;100.00;102165.22;5355572;27;20189;-79
2023/09/24 01:35:12;;;;;;;18.90;12.80;;;;;;;8.09;100.00;102159.19;5375225;27;20023;-79
2023/09/24 01:37:43;;;;;;;17.03;11.40;;;;;;;8.06;100.00;102158.25;5374409;27;20117;-78
2023/09/24 01:40:19;;;;;;;17.93;12.60;;;;;;;8.06;100.00;102159.13;5373091;27;20461;-79
2023/09/24 01:42:52;;;;;;;15.88;11.98;;;;;;;8.02;100.00;102160.78;5373688;27;20031;-78
2023/09/24 01:45:24;;;;;;;17.00;12.45;;;;;;;8.02;100.00;102158.19;5373434;27;20041;-79
2023/09/24 01:47:56;;;;;;;15.25;12.02;;;;;;;7.99;100.00;102154.66;5373488;27;20039;-78
2023/09/24 01:50:27;;;;;;;17.53;12.90;;;;;;;8.01;100.00;102160.75;5373689;27;20035;-77
2023/09/24 01:52:59;;;;;;;16.73;12.47;;;;;;;7.95;100.00;102163.22;5374029;27;20030;-78
2023/09/24 01:55:31;;;;;;;16.88;12.93;;;;;;;7.92;100.00;102161.44;5376698;27;20083;-79
2023/09/24 01:58:02;;;;;;;20.23;13.73;;;;;;;7.87;100.00;102167.38;5374609;27;20035;-79
2023/09/24 02:00:34;;;;;;;18.70;12.93;;;;;;;7.89;100.00;102155.28;5375479;27;20111;-79
2023/09/24 02:03:10;;;;;;;18.63;12.63;;;;;;;7.83;100.00;102162.13;5375409;27;20399;-78
2023/09/24 02:05:44;;;;;;;19.33;13.18;;;;;;;7.82;100.00;102165.59;5355745;27;20038;-79
2023/09/24 02:08:16;;;;;;;16.30;12.60;;;;;;;7.83;100.00;102156.94;5373551;27;20031;-80
2023/09/24 02:10:47;;;;;;;16.83;13.47;;;;;;;7.81;100.00;102158.63;5374062;27;20023;-80
2023/09/24 02:13:20;;;;;;;15.70;12.70;;;;;;;7.77;100.00;102159.41;5391732;27;20056;-80
2023/09/24 02:15:52;;;;;;;22.13;13.10;;;;;;;7.79;100.00;102162.91;5372801;27;20050;-79
2023/09/24 02:18:24;;;;;;;21.77;12.67;;;;;;;7.74;100.00;102167.13;5378144;27;20039;-77
2023/09/24 02:20:58;;;;;;;25.38;13.55;;;;;;;7.72;100.00;102174.00;5371084;27;20406;-78
2023/09/24 02:23:29;;;;;;;16.70;12.68;;;;;;;7.70;100.00;102178.28;5355621;27;20054;-76
2023/09/24 02:26:00;;;;;;;15.07;13.03;;;;;;;7.63;100.00;102184.19;5354847;27;20054;-79
2023/09/24 02:28:32;;;;;;;15.73;12.77;;;;;;;7.57;100.00;102187.53;5373030;27;20039;-79
2023/09/24 02:31:04;;;;;;;21.73;12.77;;;;;;;7.55;100.00;102190.91;5372532;27;20030;-79
2023/09/24 02:33:36;;;;;;;15.48;12.00;;;;;;;7.50;100.00;102193.41;5373132;27;20083;-79
2023/09/24 02:36:08;;;;;;;17.27;12.73;;;;;;;7.47;100.00;102185.56;5374154;27;20035;-79
2023/09/24 02:38:39;;;;;;;15.52;12.20;;;;;;;7.45;100.00;102185.56;5376014;27;20037;-79
2023/09/24 02:41:11;;;;;;;17.80;12.27;;;;;;;7.44;100.00;102182.91;5377837;27;20022;-80
2023/09/24 02:43:42;;;;;;;21.00;12.33;;;;;;;7.45;100.00;102188.13;5378639;27;20050;-79
2023/09/24 02:46:15;;;;;;;17.93;12.50;;;;;;;7.42;100.00;102189.75;5375279;27;20030;-79
2023/09/24 02:48:46;;;;;;;;;;;;;;;7.32;100.00;102190.41;5356291;27;20059;-79
2023/09/24 02:51:20;;;;;;;20.00;12.75;;;;;;;7.35;100.00;102190.47;5355856;27;19932;-81
2023/09/24 02:53:51;;;;;;;16.95;13.20;;;;;;;7.33;100.00;102190.44;5357045;27;20072;-80
2023/09/24 02:56:23;;;;;;;18.27;11.53;;;;;;;7.25;100.00;102190.25;5382906;27;20027;-80
2023/09/24 02:58:55;;;;;;;18.90;12.80;;;;;;;7.25;100.00;102185.06;5375478;27;20079;-79
2023/09/24 03:01:26;;;;;;;16.63;12.20;;;;;;;7.29;100.00;102183.41;5375879;27;20062;-78
2023/09/24 03:03:59;;;;;;;19.13;12.60;;;;;;;7.23;100.00;102183.28;5374805;27;20292;-80
2023/09/24 03:06:31;;;;;;;17.40;12.65;;;;;;;7.22;100.00;102178.94;5374978;27;20423;-79
2023/09/24 03:09:04;;;;;;;17.47;12.13;;;;;;;7.25;100.00;102190.25;5359421;27;20125;-80
2023/09/24 03:11:35;;;;;;;17.23;12.18;;;;;;;7.16;100.00;102189.16;5364717;27;20393;-79
2023/09/24 03:14:06;;;;;;;16.70;12.37;;;;;;;7.11;100.00;102192.50;5378540;27;20031;-80
2023/09/24 03:16:38;;;;;;;18.00;11.73;;;;;;;7.11;100.00;102191.66;5376258;27;20030;-79
2023/09/24 03:19:10;;;;;;;22.27;11.80;;;;;;;7.05;100.00;102194.09;5376197;27;20031;-78
2023/09/24 03:21:41;;;;;;;14.90;11.33;;;;;;;7.08;100.00;102188.97;5375946;27;20071;-80
2023/09/24 03:24:14;;;;;;;16.63;11.43;;;;;;;7.08;100.00;102204.53;5377504;27;20062;-79
2023/09/24 03:26:47;;;;;;;16.52;11.30;;;;;;;7.05;100.00;102202.75;5360295;27;20461;-79
2023/09/24 03:29:19;;;;;;;17.98;11.25;;;;;;;7.05;100.00;102201.88;5380045;27;20041;-80
2023/09/24 03:31:50;;;;;;;17.63;10.98;;;;;;;7.06;100.00;102201.03;5380003;27;20366;-80
2023/09/24 03:34:22;;;;;;;15.77;11.83;;;;;;;7.05;100.00;102209.63;5379544;27;20049;-78
2023/09/24 03:36:53;;;;;;;12.57;10.57;;;;;;;7.03;100.00;102200.97;5360364;27;20079;-79
2023/09/24 03:39:25;;;;;;;19.03;10.77;;;;;;;7.02;100.00;102209.56;5372587;27;20039;-79
2023/09/24 03:41:57;;;;;;;18.63;10.93;;;;;;;7.02;100.00;102219.94;5373258;27;20466;-79
2023/09/24 03:44:28;;;;;;;16.57;10.33;;;;;;;6.98;100.00;102218.13;5371429;27;20054;-78
2023/09/24 03:46:59;;;;;;;15.90;11.07;;;;;;;6.94;100.00;102214.59;5371823;27;20027;-79
2023/09/24 03:49:31;;;;;;;17.27;10.90;;;;;;;6.98;100.00;102215.53;5371976;27;20143;-78
2023/09/24 03:52:02;;;;;;;16.17;10.23;;;;;;;6.97;100.00;102218.94;5355541;27;20058;-78
2023/09/24 03:54:33;;;;;;;13.57;11.43;;;;;;;6.91;100.00;102225.75;5376038;27;20047;-78
2023/09/24 03:57:08;;;;;;;17.67;10.73;;;;;;;6.92;100.00;102218.81;5377647;27;20027;-79
2023/09/24 03:59:39;;;;;;;20.58;9.63;;;;;;;6.92;100.00;102221.41;5378640;27;20472;-79
2023/09/24 04:02:11;;;;;;;15.10;10.20;;;;;;;6.86;100.00;102223.84;5380735;27;20022;-78
2023/09/24 04:04:43;;;;;;;16.00;9.52;;;;;;;6.85;100.00;102222.13;5381686;27;20026;-78
2023/09/24 04:07:15;;;;;;;18.00;10.73;;;;;;;6.84;100.00;102226.44;5382365;27;20054;-80
2023/09/24 04:09:50;;;;;;;14.50;10.02;;;;;;;6.80;100.00;102224.59;5383470;27;20026;-80
2023/09/24 04:12:21;;;;;;;18.02;10.68;;;;;;;6.83;100.00;102229.00;5385372;27;20038;-78
2023/09/24 04:14:53;;;;;;;14.50;9.33;;;;;;;6.82;100.00;102233.28;5368165;27;20043;-78
2023/09/24 04:17:25;;;;;;;17.23;10.35;;;;;;;6.83;100.00;102229.00;5387089;27;20031;-79
2023/09/24 04:19:57;;;;;;;17.20;10.10;;;;;;;6.84;100.00;102231.63;5387674;27;20022;-78
2023/09/24 04:22:28;;;;;;;15.38;10.23;;;;;;;6.86;100.00;102232.53;5388531;27;20109;-78
2023/09/24 04:24:59;;;;;;;14.27;10.33;;;;;;;6.89;100.00;102230.00;5388496;27;20099;-77
2023/09/24 04:27:31;;;;;;;17.00;9.97;;;;;;;6.87;100.00;102233.41;5388162;27;20033;-78
2023/09/24 04:30:07;;;;;;;15.55;9.90;;;;;;;6.86;100.00;102244.59;5387877;27;20034;-78
2023/09/24 04:32:39;;;;;;;14.57;10.38;;;;;;;6.84;100.00;102249.75;5386644;27;20038;-78
2023/09/24 04:35:11;;;;;;;14.27;9.88;;;;;;;6.85;100.00;102242.84;5381715;27;20043;-79
2023/09/24 04:37:43;;;;;;;15.98;10.43;;;;;;;6.83;100.00;102241.94;5380373;27;20138;-78
2023/09/24 04:40:14;;;;;;;15.13;10.77;;;;;;;6.83;100.00;102242.81;5361532;27;20492;-79
2023/09/24 04:42:49;;;;;;;19.37;10.50;;;;;;;6.82;100.00;102242.78;5361117;27;20064;-80
2023/09/24 04:45:21;;;;;;;18.20;11.13;;;;;;;6.84;100.00;102236.81;5362572;27;20094;-79
2023/09/24 04:47:52;;;;;;;17.97;11.03;;;;;;;6.85;100.00;102241.13;5382666;27;20396;-79
2023/09/24 04:50:25;;;;;;;16.93;10.63;;;;;;;6.84;100.00;102244.56;5365601;27;20030;-80
2023/09/24 04:52:57;;;;;;;17.52;11.52;;;;;;;6.85;100.00;102238.53;5366378;27;20026;-78
2023/09/24 04:55:28;;;;;;;17.47;10.63;;;;;;;6.81;100.00;102241.91;5369240;27;20034;-77
2023/09/24 04:58:00;;;;;;;19.13;10.43;;;;;;;6.83;100.00;102240.22;5392123;27;20075;-81
2023/09/24 05:00:31;;;;;;;15.93;10.52;;;;;;;6.79;100.00;102242.69;5392171;27;20011;-77
2023/09/24 05:03:03;;;;;;;18.33;11.47;;;;;;;6.78;100.00;102244.41;5389755;27;20035;-79
2023/09/24 05:05:34;;;;;;;15.83;10.27;;;;;;;6.74;100.00;102250.34;5383365;27;20392;-78
2023/09/24 05:08:06;;;;;;;14.53;9.93;;;;;;;6.69;100.00;102245.03;5386728;27;20465;-78
2023/09/24 05:10:40;;;;;;;16.17;11.00;;;;;;;6.69;100.00;102246.75;5387033;27;20035;-79
2023/09/24 05:13:12;;;;;;;19.17;11.40;;;;;;;6.71;100.00;102250.25;5387503;27;20031;-79
2023/09/24 05:16:00;;;;;;;15.73;9.80;;;;;;;6.70;100.00;102256.28;5382561;27;20130;-80
2023/09/24 05:18:34;;;;;;;14.70;10.48;;;;;;;6.70;100.00;102257.16;5370989;27;20499;-79
2023/09/24 05:21:17;;;;;;;18.98;10.63;;;;;;;6.67;100.00;102251.03;5369249;27;20109;-79
2023/09/24 05:23:48;;;;;;;13.23;9.15;;;;;;;6.70;100.00;102248.53;5369052;27;20042;-79
2023/09/24 05:26:19;;;;;;;20.27;10.53;;;;;;;6.62;100.00;102261.25;5368618;27;20071;-80
2023/09/24 05:28:51;;;;;;;16.57;10.20;;;;;;;6.65;100.00;102268.22;5368937;27;20034;-79
2023/09/24 05:31:22;;;;;;;15.90;10.70;;;;;;;6.64;100.00;102276.84;5368652;27;20031;-79
2023/09/24 05:33:54;;;;;;;14.43;9.80;;;;;;;6.62;100.00;102276.81;5369264;27;20486;-80
2023/09/24 05:36:25;;;;;;;14.30;10.33;;;;;;;6.68;100.00;102271.81;5368850;27;20050;-81
2023/09/24 05:38:57;;;;;;;16.90;10.50;;;;;;;6.72;100.00;102275.34;5368709;27;20030;-79
2023/09/24 05:41:29;;;;;;;16.97;10.90;;;;;;;6.76;100.00;102279.75;5369042;27;20023;-79
2023/09/24 05:44:04;;;;;;;14.73;9.63;;;;;;;6.75;100.00;102291.84;5368655;27;20046;-80
2023/09/24 05:46:35;;;;;;;20.17;10.52;;;;;;;6.78;100.00;102298.84;5368908;27;20465;-79
2023/09/24 05:49:07;;;;;;;14.30;9.57;;;;;;;6.75;100.00;102288.38;5369038;27;20034;-79
2023/09/24 05:51:38;;;;;;;14.03;10.20;;;;;;;6.78;100.00;102298.84;5368346;27;20494;-79
2023/09/24 05:54:10;;;;;;;20.93;9.80;;;;;;;6.79;100.00;102300.56;5368121;27;20043;-80
2023/09/24 05:56:42;;;;;;;17.85;9.75;;;;;;;6.81;100.00;102309.28;5353683;27;20023;-80
2023/09/24 05:59:13;;;;;;;15.70;10.13;;;;;;;6.85;100.00;102308.53;5372229;27;20031;-78
2023/09/24 06:01:45;;;;;;;19.73;9.80;;;;;;;6.88;100.00;102311.19;5371867;27;20063;-82
2023/09/24 06:04:16;;;;;;;16.47;10.57;;;;;;;6.89;100.00;102317.25;5372388;27;20027;-81
2023/09/24 06:06:48;;;;;;;17.73;10.00;;;;;;;6.88;100.00;102308.59;5372057;27;20034;-80
2023/09/24 06:09:20;;;;;;;19.90;10.53;;;;;;;6.91;100.00;102308.69;5353193;27;20034;-80
2023/09/24 06:11:51;;;;;;;23.92;9.85;;;;;;;6.96;100.00;102303.63;5371878;27;20058;-79
2023/09/24 06:14:22;;;;;;;12.43;9.37;;;;;;;7.02;100.00;102303.81;5372081;27;20046;-79
2023/09/24 06:16:54;;;;;;;14.03;9.63;;;;;;;7.06;100.00;102304.75;5372193;27;20110;-77
2023/09/24 06:19:25;;;;;;;18.27;10.23;;;;;;;7.11;100.00;102305.75;5371525;27;20086;-77
2023/09/24 06:21:56;;;;;;;17.73;10.67;;;;;;;7.16;100.00;102309.31;5371735;27;20026;-78
2023/09/24 06:24:29;;;;;;;19.93;9.87;;;;;;;7.21;100.00;102309.44;5371650;27;20109;-76
2023/09/24 06:27:00;;;;;;;;;;;;;;;7.23;100.00;102312.94;5371788;27;20044;-77
2023/09/24 06:29:35;;;;;;;18.90;9.68;;;;;;;7.36;100.00;102315.03;5371618;27;19919;-77
2023/09/24 06:32:07;;;;;;;16.00;9.88;;;;;;;7.42;100.00;102319.50;5373734;27;20030;-78
2023/09/24 06:34:38;;;;;;;16.77;9.67;;;;;;;7.51;100.00;102317.13;5371938;27;20027;-77
2023/09/24 06:37:10;;;;;;;14.03;9.33;;;;;;;7.56;100.00;102325.03;5353031;27;20113;-78
2023/09/24 06:39:44;;;;;;;15.93;9.50;;;;;;;7.63;100.00;102319.13;5371336;27;20039;-75
2023/09/24 06:42:15;;;;;;;15.23;9.52;;;;;;;7.66;100.00;102324.41;5371288;27;20018;-78
2023/09/24 06:44:47;;;;;;;23.60;9.27;;;;;;;7.77;100.00;102324.66;5335827;27;20193;-76
2023/09/24 06:47:18;;;;;;;14.33;9.60;;;;;;;7.77;100.00;102322.94;5371223;27;20373;-76
2023/09/24 06:49:50;;;;;;;15.87;9.33;;;;;;;7.87;100.00;102329.22;5371948;27;20278;-75
2023/09/24 06:52:22;;;;;;;16.67;9.03;;;;;;;7.99;100.00;102334.69;5370849;27;20030;-81
2023/09/24 06:54:53;;;;;;;18.00;9.13;;;;;;;8.04;100.00;102334.81;5371743;27;20115;-77
2023/09/24 06:57:24;;;;;;;21.20;9.13;;;;;;;8.10;100.00;102337.56;5352767;27;20075;-77
2023/09/24 06:59:56;;;;;;;16.50;9.40;;;;;;;8.13;100.00;102341.91;5352276;27;20041;-75
2023/09/24 07:02:27;;;;;;;16.63;9.10;;;;;;;8.20;100.00;102341.22;5373536;27;20361;-77
2023/09/24 07:04:58;;;;;;;15.77;8.80;;;;;;;8.30;100.00;102334.50;5371813;27;20030;-77
2023/09/24 07:07:30;;;;;;;13.37;9.00;;;;;;;8.40;100.00;102341.66;5370229;27;20058;-76
2023/09/24 07:10:02;;;;;;;19.93;9.17;;;;;;;8.49;100.00;102341.88;5371234;27;20034;-77
2023/09/24 07:12:33;;;;;;;17.57;9.23;;;;;;;8.57;100.00;102336.84;5371057;27;20023;-76
2023/09/24 07:15:06;;;;;;;18.10;9.13;;;;;;;8.71;100.00;102343.19;5371247;27;20023;-75
2023/09/24 07:17:37;;;;;;;17.88;9.60;;;;;;;8.82;100.00;102334.72;5371478;27;20394;-75
2023/09/24 07:20:09;;;;;;;20.70;9.70;;;;;;;8.95;100.00;102339.31;5371347;27;20037;-75
2023/09/24 07:22:41;;;;;;;17.00;9.13;;;;;;;9.09;100.00;102337.84;5370436;27;20552;-76
2023/09/24 07:25:12;;;;;;;17.57;8.50;;;;;;;9.18;100.00;102347.56;5351959;27;20023;-76
2023/09/24 07:27:45;;;;;;;15.20;8.23;;;;;;;9.24;100.00;102338.97;5370235;27;20037;-78
2023/09/24 07:30:17;;;;;;;;;;;;;;;9.40;100.00;102350.53;5370305;27;20030;-76
2023/09/24 07:32:50;;;;;;;15.90;7.10;;;;;;;9.50;100.00;102360.25;5370062;27;19911;-76
2023/09/24 07:35:21;;;;;;;15.77;8.07;;;;;;;9.67;100.00;102358.78;5370233;27;20419;-76
2023/09/24 07:37:52;;;;;;;13.27;6.90;;;;;;;9.84;100.00;102359.06;5352253;27;20035;-76
2023/09/24 07:40:24;;;;;;;19.00;7.57;;;;;;;9.95;100.00;102363.53;5352240;27;20034;-76
2023/09/24 07:42:55;;;;;;;11.70;6.60;;;;;;;10.08;100.00;102365.50;5370465;27;20485;-76
2023/09/24 07:45:26;;;;;;;17.30;7.23;;;;;;;10.18;100.00;102359.56;5356382;27;20114;-76
2023/09/24 07:47:58;;;;;;;11.07;5.20;;;;;;;10.34;100.00;102362.41;5379634;27;20033;-77
2023/09/24 07:50:30;;;;;;;13.90;5.10;;;;;;;10.52;100.00;102373.06;5361047;27;20510;-75
2023/09/24 07:53:03;;;;;;;9.98;4.95;;;;;;;10.64;100.00;102385.41;5355796;27;20118;-77
2023/09/24 07:55:34;;;;;;;;;;;;;;;10.75;100.00;102382.91;5370889;27;20035;-77
2023/09/24 07:58:06;;;;;;;8.90;3.95;;;;;;;10.86;100.00;102376.09;5369840;27;19921;-77
2023/09/24 08:00:38;;;;;;;7.80;4.17;;;;;;;11.03;100.00;102378.91;5369777;27;20469;-77
2023/09/24 08:03:09;;;;;;;7.03;3.97;;;;;;;11.20;100.00;102381.69;5369609;27;20110;-75
2023/09/24 08:05:41;;;;;;;8.03;3.87;;;;;;;11.35;100.00;102374.84;5369572;27;20122;-77
2023/09/24 08:08:12;;;;;;;12.23;5.23;;;;;;;11.43;100.00;102379.31;5369752;27;20042;-77
2023/09/24 08:10:43;;;;;;;8.27;3.87;;;;;;;11.55;100.00;102382.91;5370027;27;20105;-76
2023/09/24 08:13:15;;;;;;;7.33;4.77;;;;;;;11.61;100.00;102382.94;5333807;27;20054;-76
2023/09/24 08:15:47;;;;;;;7.00;3.70;;;;;;;11.76;100.00;102385.66;5369245;27;20377;-78
2023/09/24 08:18:19;;;;;;;5.57;3.53;;;;;;;11.89;100.00;102386.63;5368685;27;20023;-75
2023/09/24 08:20:51;;;;;;;7.80;3.60;;;;;;;12.15;100.00;102388.59;5369557;27;20035;-75
2023/09/24 08:23:23;;;;;;;6.63;2.95;;;;;;;12.20;100.00;102390.38;5370179;27;20025;-75
2023/09/24 08:25:55;;;;;;;8.35;3.95;;;;;;;12.30;100.00;102386.09;5369956;27;20418;-77
2023/09/24 08:28:26;;;;;;;7.87;3.20;;;;;;;12.49;100.00;102391.41;5369180;27;20031;-75
2023/09/24 08:30:58;;;;;;;7.37;3.10;;;;;;;12.62;100.00;102393.19;5369204;27;20422;-76
2023/09/24 08:33:29;;;;;;;10.90;3.10;;;;;;;12.79;100.00;102385.44;5369293;27;20411;-78
2023/09/24 08:36:00;;;;;;;9.63;2.90;;;;;;;12.90;100.00;102398.56;5368928;27;20035;-77
2023/09/24 08:38:32;;;;;;;8.07;3.10;;;;;;;13.07;100.00;102390.75;5369106;27;20035;-76
2023/09/24 08:41:10;;;;;;;6.37;2.73;;;;;;;13.46;100.00;102400.47;5350201;27;20031;-76
2023/09/24 08:43:42;;;;;;;5.55;2.63;;;;;;;13.86;98.87;102395.22;5369090;27;20087;-76
2023/09/24 08:46:14;;;;;;;5.28;2.67;;;;;;;14.26;94.57;102398.66;5350314;27;20027;-77
2023/09/24 08:48:45;;;;;;;6.97;2.43;;;;;;;14.59;91.90;102403.84;5368186;27;20039;-77
2023/09/24 08:51:17;;;;;;;6.90;2.23;;;;;;;15.07;92.56;102403.63;5349603;27;20022;-77
2023/09/24 08:53:51;;;;;;;7.35;2.65;;;;;;;15.31;88.43;102407.84;5350415;27;20039;-76
2023/09/24 08:56:23;;;;;;;6.10;2.92;;;;;;;15.56;85.89;102407.66;5368399;27;20486;-76
2023/09/24 08:58:54;;;;;;;10.73;2.92;;;;;;;15.83;83.44;102411.00;5368595;27;20030;-76
2023/09/24 09:01:26;;;;;;;6.17;2.43;;;;;;;16.07;84.32;102401.13;5369402;27;20388;-77
2023/09/24 09:03:58;;;;;;;9.23;2.47;;;;;;;16.37;82.63;102406.09;5368608;27;20109;-76
2023/09/24 09:06:30;;;;;;;6.05;2.50;;;;;;;16.78;80.78;102407.34;5369594;27;20454;-77
2023/09/24 09:09:02;;;;;;;6.07;2.83;;;;;;;17.08;76.62;102405.22;5369158;27;20062;-77
2023/09/24 09:11:39;;;;;;;5.82;2.33;;;;;;;17.24;74.87;102412.88;5370128;27;20141;-76
2023/09/24 09:14:10;;;;;;;7.82;2.75;;;;;;;17.61;74.82;102404.41;5368450;27;20030;-76
2023/09/24 09:16:57;;;;;;;8.30;2.53;;;;;;;17.78;74.09;102401.50;5368441;27;20027;-77
2023/09/24 09:19:45;;;;;;;4.93;2.17;;;;;;;17.94;73.16;102392.44;5349563;27;20620;-75
2023/09/24 09:22:18;;;;;;;4.60;2.00;;;;;;;18.37;69.26;102398.66;5368509;27;20110;-78
2023/09/24 09:25:07;;;;;;;5.40;1.92;;;;;;;18.59;67.92;102386.81;5368659;27;20450;-76
2023/09/24 09:27:42;;;;;;;2.40;1.65;;;;;;;18.57;67.11;102378.00;5367993;27;20465;-77
2023/09/24 09:30:15;;;;;;;6.38;2.20;;;;;;;18.73;67.55;102375.94;5369537;27;20454;-77
2023/09/24 09:32:49;;;;;;;8.20;2.50;;;;;;;18.95;63.65;102372.84;5372362;27;20075;-75
2023/09/24 09:35:31;;;;;;;6.70;2.25;;;;;;;19.01;65.82;102370.06;5372421;27;20083;-77
2023/09/24 09:38:11;;;;;;;6.88;2.22;;;;;;;19.19;64.50;102363.50;5373178;27;20339;-76
2023/09/24 09:40:43;;;;;;;4.60;2.33;;;;;;;19.25;62.52;102358.03;5372052;27;20039;-78
2023/09/24 09:43:20;;;;;;;4.77;2.03;;;;;;;19.59;61.70;102356.31;5372042;27;20492;-78
2023/09/24 09:45:54;;;;;;;5.32;1.90;;;;;;;20.00;59.56;102360.56;5354181;27;20026;-77
2023/09/24 09:48:30;;;;;;;5.65;1.83;;;;;;;19.99;56.74;102355.31;5372383;27;20458;-77
2023/09/24 09:51:06;;;;;;;4.75;2.03;;;;;;;20.19;55.30;102355.63;5371765;27;20039;-77
2023/09/24 09:53:40;;;;;;;4.20;1.73;;;;;;;20.37;56.26;102356.03;5372495;27;20102;-77
2023/09/24 09:56:11;;;;;;;5.05;2.00;;;;;;;20.91;55.39;102349.13;5371868;27;20035;-78
2023/09/24 09:58:46;;;;;;;3.60;1.80;;;;;;;21.13;53.56;102352.81;5371793;27;20038;-76
2023/09/24 10:01:20;;;;;;;3.67;1.77;;;;;;;21.38;52.25;102349.38;5371124;27;20027;-76
2023/09/24 10:03:53;;;;;;;4.05;2.00;;;;;;;21.46;54.41;102344.69;5371583;27;20063;-77
2023/09/24 10:06:25;;;;;;;5.45;2.00;;;;;;;22.00;51.61;102334.84;5371389;27;20042;-77
2023/09/24 10:08:57;;;;;;;;;;;;;;;23.07;56.76;102333.47;5372003;27;20045;-77
2023/09/24 10:11:31;;;;;;;3.63;2.37;;;;;;;22.54;48.87;102330.22;5371194;27;20362;-77
2023/09/24 10:14:05;;;;;;;3.50;1.75;;;;;;;22.83;47.18;102319.38;5371166;27;20453;-79
2023/09/24 10:16:38;;;;;;;3.47;1.83;;;;;;;22.50;45.59;102322.44;5372393;27;20339;-76
2023/09/24 10:19:13;;;;;;;4.22;2.03;;;;;;;22.44;45.41;102320.00;5370972;27;20053;-78
2023/09/24 10:21:45;;;;;;;5.10;2.20;;;;;;;22.29;45.03;102319.66;5370993;27;20041;-80
2023/09/24 10:24:17;;;;;;;7.93;2.80;;;;;;;22.49;44.85;102318.03;5352774;27;20461;-76
2023/09/24 10:27:03;;;;;;;4.22;1.55;;;;;;;22.46;45.59;102313.72;5370593;27;20408;-77
2023/09/24 10:29:50;;;;;;;7.60;1.88;;;;;;;22.81;45.49;102313.25;5371523;27;20047;-75
2023/09/24 10:32:23;;;;;;;5.30;2.45;;;;;;;22.81;43.05;102308.78;5379412;27;20026;-76
2023/09/24 10:34:58;;;;;;;4.63;2.33;;;;;;;22.82;44.45;102315.00;5383357;27;20037;-75
2023/09/24 10:37:39;;;;;;;7.53;2.53;;;;;;;23.34;44.00;102310.19;5361580;27;20027;-78
2023/09/24 10:40:13;;;;;;;2.72;1.85;;;;;;;23.28;44.10;102310.44;5373348;27;20031;-77
2023/09/24 10:43:12;;;;;;;9.88;3.15;;;;;;;24.00;45.65;102315.31;5370734;27;20049;-78
2023/09/24 10:45:44;;;;;;;4.65;2.10;;;;;;;23.72;40.35;102306.81;5371548;27;20023;-81
2023/09/24 10:48:17;;;;;;;4.13;2.55;;;;;;;23.70;41.15;102312.22;5371279;27;20027;-77
2023/09/24 10:50:48;;;;;;;5.90;2.17;;;;;;;23.92;40.24;102306.81;5370993;27;20106;-80
2023/09/24 10:53:19;;;;;;;2.97;1.50;;;;;;;24.15;41.62;102303.13;5352067;27;20167;-80
2023/09/24 10:55:51;;;;;;;7.80;1.80;;;;;;;24.70;38.58;102307.66;5371598;27;20153;-80
2023/09/24 10:58:22;;;;;;;5.43;2.40;;;;;;;24.30;38.45;102304.19;5370254;27;20298;-77
2023/09/24 11:00:53;;;;;;;3.03;1.60;;;;;;;25.02;38.80;102302.56;5370877;27;20461;-81
2023/09/24 11:03:25;;;;;;;5.00;2.25;;;;;;;25.25;37.41;102297.88;5352382;27;20035;-80
2023/09/24 11:05:57;;;;;;;6.13;2.25;;;;;;;25.67;38.41;102293.94;5370657;27;20069;-80
2023/09/24 11:08:30;;;;;;;5.63;2.17;;;;;;;25.86;37.24;102291.16;5370584;27;20030;-81
2023/09/24 11:11:01;;;;;;;5.13;2.08;;;;;;;26.05;35.86;102293.72;5370912;27;20750;-80
2023/09/24 11:13:32;;;;;;;;;;;;;;;26.66;36.79;102297.50;5352962;27;20101;-80
2023/09/24 11:16:04;;;;;;;3.72;2.00;;;;;;;25.37;35.70;102286.56;5371081;27;19979;-81
2023/09/24 11:18:35;;;;;;;;;;;;;;;26.36;36.27;102286.69;5352694;27;20086;-80
2023/09/24 11:21:06;;;;;;;4.03;2.00;;;;;;;26.28;35.19;102289.78;5371111;27;19965;-79
2023/09/24 11:23:38;;;;;;;4.15;1.90;;;;;;;27.09;36.06;102289.63;5353107;27;20268;-82
2023/09/24 11:26:10;;;;;;;;;;;;;;;28.84;35.27;102297.59;5374111;27;20031;-77
2023/09/24 11:28:41;;;;;;;3.17;1.90;;;;;;;28.39;31.90;102297.81;5377337;27;19910;-81
2023/09/24 11:31:22;;;;;;;;;;;;;;;29.39;33.98;102284.97;5376346;27;20073;-78
2023/09/24 11:33:57;;;;;;;6.57;2.45;;;;;;;28.36;31.81;102284.59;5372995;27;19919;-81
2023/09/24 11:36:28;;;;;;;4.72;1.88;;;;;;;28.78;31.31;102279.22;5371016;27;20109;-80
2023/09/24 11:39:10;;;;;;;;;;;;;;;30.59;31.76;102278.25;5352217;27;20205;-80
2023/09/24 11:41:45;;;;;;;4.05;1.95;;;;;;;28.49;30.01;102281.97;5370584;27;19911;-82
2023/09/24 11:44:20;;;;;;;6.72;1.90;;;;;;;28.00;29.81;102284.16;5370075;27;20111;-78